Tubul — A8VP8 — position and weather

sailwx.info

Track history (hours):
 
Tides and Currents Weather Stations Pressure Air Temp Water Temp Dewpoint Dewpoint Depression Visibility Wind Speed Wind Dir Waves Ship Positions

Tubul

Last reported at 2014-Jul-23 21:33 UTC. Time now 2014-Jul-23 21:47 UTC.
Position N 22°52' E 116°55'.

Length 300 m; draft 9.5 m.

Type: Ship. MMSI: 636014647.

Date/timePositionNaut miles runAvg speedWind from/ knotsBaromVisibWave heightAir tempDewpointWater temp
2014-Jul-23 21:33N 22°52' E 116°55'1917.6
2014-Jul-23 20:27N 22°42' E 116°37'14115.5
2014-Jul-23 11:21N 22°18' E 114°06'2 0.1
2014-Jul-22 17:16N 22°20' E 114°07'21 0.8
2014-Jul-21 15:23N 21°59' E 114°04'  
2014-Jul-18 00:33N 01°15' E 104°06'1514.7
2014-Jul-17 23:32N 01°11' E 103°51'6 0.4
2014-Jul-17 09:23N 01°16' E 103°48'3 2.3
2014-Jul-17 08:10N 01°18' E 103°48'0 0.2
2014-Jul-17 06:32N 01°19' E 103°49'1 0.6
2014-Jul-17 04:33N 01°18' E 103°50'1 0.7
2014-Jul-17 02:33N 01°17' E 103°49'3 3.2
2014-Jul-17 01:33N 01°17' E 103°45'0 0.0
2014-Jul-17 00:27N 01°17' E 103°45'0 0.0
2014-Jul-16 20:33N 01°17' E 103°45'2 2.3
2014-Jul-16 19:33N 01°15' E 103°47'6 6.5
2014-Jul-16 18:34N 01°14' E 103°53'0 0.1
2014-Jul-16 17:31N 01°14' E 103°53'0 0.0
2014-Jul-16 16:31N 01°14' E 103°53'0 0.1
2014-Jul-16 15:25N 01°14' E 103°53'0 0.0
2014-Jul-16 14:31N 01°14' E 103°53'0 0.0
2014-Jul-16 13:31N 01°14' E 103°53'0 0.1
2014-Jul-16 12:25N 01°15' E 103°53'0 0.0
2014-Jul-16 11:13N 01°15' E 103°53'0 0.1
2014-Jul-16 10:28N 01°15' E 103°53'0 0.0
2014-Jul-16 09:10N 01°15' E 103°53'0 0.0
2014-Jul-16 08:19N 01°15' E 103°53'0 0.0
2014-Jul-16 07:04N 01°15' E 103°53'0 0.1
2014-Jul-16 06:28N 01°15' E 103°53'0 0.1
2014-Jul-16 05:25N 01°14' E 103°53'0 0.0
2014-Jul-16 04:31N 01°14' E 103°53'0 0.0
2014-Jul-16 03:25N 01°14' E 103°53'0 0.1
2014-Jul-16 02:31N 01°14' E 103°53'0 0.1
2014-Jul-16 01:31N 01°14' E 103°53'0 0.1
2014-Jul-16 00:28N 01°14' E 103°53'0 0.2
2014-Jul-15 23:28N 01°15' E 103°53'0 0.0
2014-Jul-15 18:28N 01°15' E 103°53'0 0.1
2014-Jul-15 17:31N 01°14' E 103°53'0 0.0
2014-Jul-15 16:31N 01°14' E 103°53'0 0.0
2014-Jul-15 15:28N 01°14' E 103°53'1 1.6
2014-Jul-15 14:33N 01°13' E 103°53'  
Track history (hours):
 
Tides and Currents Weather Stations Pressure Air Temp Water Temp Dewpoint Dewpoint Depression Visibility Wind Speed Wind Dir Waves Ship Positions

Tubul

Last reported at 2014-Jul-23 21:33 UTC. Time now 2014-Jul-23 21:47 UTC.
Position N 22°52' E 116°55'.

Length 300 m; draft 9.5 m.

Type: Ship. MMSI: 636014647.

Date/timePositionNaut miles runAvg speedWind from/ knotsBaromVisibWave heightAir tempDewpointWater temp
2014-Jul-23 21:33N 22°52' E 116°55'1917.6
2014-Jul-23 20:27N 22°42' E 116°37'14115.5
2014-Jul-23 11:21N 22°18' E 114°06'2 0.1
2014-Jul-22 17:16N 22°20' E 114°07'21 0.8
2014-Jul-21 15:23N 21°59' E 114°04'  
2014-Jul-18 00:33N 01°15' E 104°06'1514.7
2014-Jul-17 23:32N 01°11' E 103°51'6 0.4
2014-Jul-17 09:23N 01°16' E 103°48'3 2.3
2014-Jul-17 08:10N 01°18' E 103°48'0 0.2
2014-Jul-17 06:32N 01°19' E 103°49'1 0.6
2014-Jul-17 04:33N 01°18' E 103°50'1 0.7
2014-Jul-17 02:33N 01°17' E 103°49'3 3.2
2014-Jul-17 01:33N 01°17' E 103°45'0 0.0
2014-Jul-17 00:27N 01°17' E 103°45'0 0.0
2014-Jul-16 20:33N 01°17' E 103°45'2 2.3
2014-Jul-16 19:33N 01°15' E 103°47'6 6.5
2014-Jul-16 18:34N 01°14' E 103°53'0 0.1
2014-Jul-16 17:31N 01°14' E 103°53'0 0.0
2014-Jul-16 16:31N 01°14' E 103°53'0 0.1
2014-Jul-16 15:25N 01°14' E 103°53'0 0.0
2014-Jul-16 14:31N 01°14' E 103°53'0 0.0
2014-Jul-16 13:31N 01°14' E 103°53'0 0.1
2014-Jul-16 12:25N 01°15' E 103°53'0 0.0
2014-Jul-16 11:13N 01°15' E 103°53'0 0.1
2014-Jul-16 10:28N 01°15' E 103°53'0 0.0
2014-Jul-16 09:10N 01°15' E 103°53'0 0.0
2014-Jul-16 08:19N 01°15' E 103°53'0 0.0
2014-Jul-16 07:04N 01°15' E 103°53'0 0.1
2014-Jul-16 06:28N 01°15' E 103°53'0 0.1
2014-Jul-16 05:25N 01°14' E 103°53'0 0.0
2014-Jul-16 04:31N 01°14' E 103°53'0 0.0
2014-Jul-16 03:25N 01°14' E 103°53'0 0.1
2014-Jul-16 02:31N 01°14' E 103°53'0 0.1
2014-Jul-16 01:31N 01°14' E 103°53'0 0.1
2014-Jul-16 00:28N 01°14' E 103°53'0 0.2
2014-Jul-15 23:28N 01°15' E 103°53'0 0.0
2014-Jul-15 18:28N 01°15' E 103°53'0 0.1
2014-Jul-15 17:31N 01°14' E 103°53'0 0.0
2014-Jul-15 16:31N 01°14' E 103°53'0 0.0
2014-Jul-15 15:28N 01°14' E 103°53'1 1.6
2014-Jul-15 14:33N 01°13' E 103°53'  

Dump ship's entire track history